sensor_id;sensor_type;location;lat;lon;timestamp;pressure;altitude;pressure_sealevel;temperature;humidity
18167;BME280;9208;42.688;23.404;2023-04-29T00:00:19;95435.28;;;9.85;70.89
18167;BME280;9208;42.688;23.404;2023-04-29T00:02:45;95441.72;;;9.82;71.92
18167;BME280;9208;42.688;23.404;2023-04-29T00:05:10;95430.56;;;9.85;71.00
18167;BME280;9208;42.688;23.404;2023-04-29T00:07:36;95435.09;;;9.88;71.58
18167;BME280;9208;42.688;23.404;2023-04-29T00:10:01;95439.72;;;9.82;71.86
18167;BME280;9208;42.688;23.404;2023-04-29T00:12:27;95427.38;;;9.72;72.47
18167;BME280;9208;42.688;23.404;2023-04-29T00:14:54;95437.66;;;9.77;71.61
18167;BME280;9208;42.688;23.404;2023-04-29T00:17:20;95421.41;;;9.59;71.82
18167;BME280;9208;42.688;23.404;2023-04-29T00:19:45;95233.94;;;8.33;71.47
18167;BME280;9208;42.688;23.404;2023-04-29T00:22:11;95444.81;;;9.75;71.03
18167;BME280;9208;42.688;23.404;2023-04-29T00:24:36;95442.75;;;9.70;72.11
18167;BME280;9208;42.688;23.404;2023-04-29T00:27:01;95446.06;;;9.74;71.69
18167;BME280;9208;42.688;23.404;2023-04-29T00:29:27;95451.06;;;9.75;72.34
18167;BME280;9208;42.688;23.404;2023-04-29T00:31:53;95448.13;;;9.64;72.11
18167;BME280;9208;42.688;23.404;2023-04-29T00:34:18;95453.03;;;9.60;72.18
18167;BME280;9208;42.688;23.404;2023-04-29T00:36:44;95452.84;;;9.49;71.70
18167;BME280;9208;42.688;23.404;2023-04-29T00:39:09;95455.56;;;9.49;71.58
18167;BME280;9208;42.688;23.404;2023-04-29T00:41:35;95452.47;;;9.42;71.41
18167;BME280;9208;42.688;23.404;2023-04-29T00:44:01;95451.13;;;9.37;71.34
18167;BME280;9208;42.688;23.404;2023-04-29T00:46:29;95447.34;;;9.35;71.89
18167;BME280;9208;42.688;23.404;2023-04-29T00:48:54;95443.38;;;9.36;71.72
18167;BME280;9208;42.688;23.404;2023-04-29T00:51:20;95440.56;;;9.30;71.58
18167;BME280;9208;42.688;23.404;2023-04-29T00:53:46;95436.94;;;9.24;73.06
18167;BME280;9208;42.688;23.404;2023-04-29T00:56:12;95435.94;;;9.36;73.15
18167;BME280;9208;42.688;23.404;2023-04-29T00:58:39;95421.22;;;9.34;73.47
18167;BME280;9208;42.688;23.404;2023-04-29T01:01:05;95415.72;;;9.19;75.60
18167;BME280;9208;42.688;23.404;2023-04-29T01:03:30;95404.88;;;9.25;75.54
18167;BME280;9208;42.688;23.404;2023-04-29T01:11:34;95406.75;;;9.33;76.57
18167;BME280;9208;42.688;23.404;2023-04-29T01:14:04;95413.34;;;9.27;77.11
18167;BME280;9208;42.688;23.404;2023-04-29T01:16:36;95403.38;;;9.24;76.75
18167;BME280;9208;42.688;23.404;2023-04-29T01:19:28;95419.38;;;9.16;78.26
18167;BME280;9208;42.688;23.404;2023-04-29T01:21:58;95416.72;;;9.07;78.19
18167;BME280;9208;42.688;23.404;2023-04-29T01:24:24;95412.84;;;8.99;79.33
18167;BME280;9208;42.688;23.404;2023-04-29T01:27:06;95398.31;;;8.93;78.14
18167;BME280;9208;42.688;23.404;2023-04-29T01:30:06;95427.34;;;8.91;76.55
18167;BME280;9208;42.688;23.404;2023-04-29T01:32:45;95429.59;;;8.92;75.94
18167;BME280;9208;42.688;23.404;2023-04-29T01:38:22;95435.38;;;8.71;75.05
18167;BME280;9208;42.688;23.404;2023-04-29T01:43:37;95439.44;;;8.75;73.66
18167;BME280;9208;42.688;23.404;2023-04-29T01:46:05;95426.94;;;8.83;74.18
18167;BME280;9208;42.688;23.404;2023-04-29T01:48:33;95433.97;;;8.75;74.56
18167;BME280;9208;42.688;23.404;2023-04-29T01:50:59;95435.72;;;8.64;73.65
18167;BME280;9208;42.688;23.404;2023-04-29T01:53:25;95443.28;;;8.69;73.91
18167;BME280;9208;42.688;23.404;2023-04-29T01:55:51;95428.16;;;8.59;75.47
18167;BME280;9208;42.688;23.404;2023-04-29T01:58:16;95433.75;;;8.64;76.05
18167;BME280;9208;42.688;23.404;2023-04-29T02:00:42;95425.31;;;8.53;77.58
18167;BME280;9208;42.688;23.404;2023-04-29T02:03:07;95427.97;;;8.62;77.72
18167;BME280;9208;42.688;23.404;2023-04-29T02:05:33;95434.22;;;8.63;78.41
18167;BME280;9208;42.688;23.404;2023-04-29T02:08:00;95442.06;;;8.70;78.15
18167;BME280;9208;42.688;23.404;2023-04-29T02:10:26;95435.63;;;8.58;79.45
18167;BME280;9208;42.688;23.404;2023-04-29T02:12:52;95439.84;;;8.59;82.91
18167;BME280;9208;42.688;23.404;2023-04-29T02:15:17;95449.28;;;8.58;84.74
18167;BME280;9208;42.688;23.404;2023-04-29T02:17:43;95450.19;;;8.55;86.75
18167;BME280;9208;42.688;23.404;2023-04-29T02:20:09;95448.38;;;8.52;87.11
18167;BME280;9208;42.688;23.404;2023-04-29T02:22:35;95456.41;;;8.56;87.63
18167;BME280;9208;42.688;23.404;2023-04-29T02:25:01;95455.34;;;8.53;87.74
18167;BME280;9208;42.688;23.404;2023-04-29T02:27:26;95467.91;;;8.36;90.17
18167;BME280;9208;42.688;23.404;2023-04-29T02:29:51;95465.28;;;8.42;89.79
18167;BME280;9208;42.688;23.404;2023-04-29T02:32:17;95472.59;;;8.36;91.21
18167;BME280;9208;42.688;23.404;2023-04-29T02:34:45;95472.16;;;8.37;90.80
18167;BME280;9208;42.688;23.404;2023-04-29T02:37:10;95465.81;;;8.31;90.99
18167;BME280;9208;42.688;23.404;2023-04-29T02:39:36;95447.88;;;7.98;89.47
18167;BME280;9208;42.688;23.404;2023-04-29T02:42:01;95494.50;;;8.27;86.93
18167;BME280;9208;42.688;23.404;2023-04-29T02:44:27;95495.28;;;8.18;86.90
18167;BME280;9208;42.688;23.404;2023-04-29T02:46:53;95493.91;;;8.14;88.02
18167;BME280;9208;42.688;23.404;2023-04-29T02:49:18;95495.94;;;8.04;88.18
18167;BME280;9208;42.688;23.404;2023-04-29T02:51:44;95501.53;;;8.01;88.53
18167;BME280;9208;42.688;23.404;2023-04-29T02:54:09;95494.75;;;7.87;87.34
18167;BME280;9208;42.688;23.404;2023-04-29T02:56:36;95506.28;;;7.82;88.83
18167;BME280;9208;42.688;23.404;2023-04-29T02:59:01;95504.47;;;7.79;92.11
18167;BME280;9208;42.688;23.404;2023-04-29T03:01:27;95521.28;;;7.78;92.61
18167;BME280;9208;42.688;23.404;2023-04-29T03:03:53;95542.06;;;7.66;93.21
18167;BME280;9208;42.688;23.404;2023-04-29T03:06:19;95545.84;;;7.78;91.93
18167;BME280;9208;42.688;23.404;2023-04-29T03:08:45;95544.50;;;7.82;94.97
18167;BME280;9208;42.688;23.404;2023-04-29T03:11:10;95542.06;;;7.75;96.27
18167;BME280;9208;42.688;23.404;2023-04-29T03:13:36;95533.59;;;7.73;94.05
18167;BME280;9208;42.688;23.404;2023-04-29T03:16:03;95529.94;;;7.67;92.80
18167;BME280;9208;42.688;23.404;2023-04-29T03:18:28;95523.00;;;7.57;93.33
18167;BME280;9208;42.688;23.404;2023-04-29T03:20:54;95532.69;;;7.58;94.67
18167;BME280;9208;42.688;23.404;2023-04-29T03:23:19;95533.44;;;7.59;93.97
18167;BME280;9208;42.688;23.404;2023-04-29T03:25:46;95533.44;;;7.59;95.74
18167;BME280;9208;42.688;23.404;2023-04-29T03:28:12;95524.38;;;7.53;95.57
18167;BME280;9208;42.688;23.404;2023-04-29T03:30:37;95544.81;;;7.57;94.33
18167;BME280;9208;42.688;23.404;2023-04-29T03:33:03;95541.63;;;7.59;94.42
18167;BME280;9208;42.688;23.404;2023-04-29T03:35:28;95560.13;;;7.55;93.24
18167;BME280;9208;42.688;23.404;2023-04-29T03:37:54;95541.94;;;7.52;93.00
18167;BME280;9208;42.688;23.404;2023-04-29T03:40:20;95570.72;;;7.80;92.45
18167;BME280;9208;42.688;23.404;2023-04-29T03:42:45;95568.28;;;7.91;90.00
18167;BME280;9208;42.688;23.404;2023-04-29T03:45:11;95568.44;;;7.96;90.59
18167;BME280;9208;42.688;23.404;2023-04-29T03:47:39;95568.09;;;8.03;89.63
18167;BME280;9208;42.688;23.404;2023-04-29T03:50:07;95579.47;;;8.02;86.12
18167;BME280;9208;42.688;23.404;2023-04-29T03:52:32;95569.16;;;7.97;84.67
18167;BME280;9208;42.688;23.404;2023-04-29T03:55:01;95552.34;;;7.98;83.13
18167;BME280;9208;42.688;23.404;2023-04-29T03:57:26;95568.69;;;8.07;83.21
18167;BME280;9208;42.688;23.404;2023-04-29T03:59:52;95580.84;;;8.06;82.34
18167;BME280;9208;42.688;23.404;2023-04-29T04:02:17;95565.38;;;7.94;83.50
18167;BME280;9208;42.688;23.404;2023-04-29T04:04:43;95557.19;;;7.94;83.05
18167;BME280;9208;42.688;23.404;2023-04-29T04:07:09;95561.16;;;7.93;83.89
18167;BME280;9208;42.688;23.404;2023-04-29T04:09:36;95556.13;;;7.92;84.20
18167;BME280;9208;42.688;23.404;2023-04-29T04:12:02;95550.22;;;7.93;84.81
18167;BME280;9208;42.688;23.404;2023-04-29T04:14:27;95556.75;;;7.96;84.16
18167;BME280;9208;42.688;23.404;2023-04-29T04:16:53;95567.81;;;7.92;84.38
18167;BME280;9208;42.688;23.404;2023-04-29T04:19:19;95571.91;;;7.88;85.67
18167;BME280;9208;42.688;23.404;2023-04-29T04:21:44;95576.91;;;7.89;85.64
18167;BME280;9208;42.688;23.404;2023-04-29T04:24:10;95571.31;;;7.84;86.71
18167;BME280;9208;42.688;23.404;2023-04-29T04:26:35;95570.56;;;7.83;86.91
18167;BME280;9208;42.688;23.404;2023-04-29T04:29:01;95571.28;;;7.93;86.44
18167;BME280;9208;42.688;23.404;2023-04-29T04:31:27;95569.50;;;7.99;86.81
18167;BME280;9208;42.688;23.404;2023-04-29T04:33:53;95564.19;;;8.04;85.86
18167;BME280;9208;42.688;23.404;2023-04-29T04:36:18;95562.63;;;8.12;85.51
18167;BME280;9208;42.688;23.404;2023-04-29T04:38:43;95563.56;;;8.09;85.45
18167;BME280;9208;42.688;23.404;2023-04-29T04:41:09;95564.28;;;8.10;85.11
18167;BME280;9208;42.688;23.404;2023-04-29T04:43:34;95561.28;;;8.08;85.93
18167;BME280;9208;42.688;23.404;2023-04-29T04:46:08;95573.09;;;8.14;85.13
18167;BME280;9208;42.688;23.404;2023-04-29T04:48:34;95570.53;;;8.01;86.99
18167;BME280;9208;42.688;23.404;2023-04-29T04:51:07;95581.00;;;8.03;88.76
18167;BME280;9208;42.688;23.404;2023-04-29T04:53:32;95578.72;;;8.01;89.77
18167;BME280;9208;42.688;23.404;2023-04-29T04:56:01;95575.66;;;8.08;90.54
18167;BME280;9208;42.688;23.404;2023-04-29T04:58:26;95577.34;;;8.24;91.99
18167;BME280;9208;42.688;23.404;2023-04-29T05:00:52;95571.84;;;8.33;91.73
18167;BME280;9208;42.688;23.404;2023-04-29T05:03:18;95570.50;;;8.28;91.67
18167;BME280;9208;42.688;23.404;2023-04-29T05:05:43;95573.22;;;8.37;88.83
18167;BME280;9208;42.688;23.404;2023-04-29T05:08:08;95570.75;;;8.48;87.74
18167;BME280;9208;42.688;23.404;2023-04-29T05:10:37;95561.34;;;8.49;87.48
18167;BME280;9208;42.688;23.404;2023-04-29T05:13:02;95562.97;;;8.56;87.40
18167;BME280;9208;42.688;23.404;2023-04-29T05:15:27;95553.56;;;8.57;88.74
18167;BME280;9208;42.688;23.404;2023-04-29T05:17:53;95547.16;;;8.60;88.84
18167;BME280;9208;42.688;23.404;2023-04-29T05:20:19;95537.41;;;8.68;88.12
18167;BME280;9208;42.688;23.404;2023-04-29T05:22:47;95533.78;;;8.71;86.97
18167;BME280;9208;42.688;23.404;2023-04-29T05:25:12;95538.00;;;8.72;86.46
18167;BME280;9208;42.688;23.404;2023-04-29T05:27:38;95518.75;;;8.66;86.72
18167;BME280;9208;42.688;23.404;2023-04-29T05:30:04;95532.09;;;8.73;87.42
18167;BME280;9208;42.688;23.404;2023-04-29T05:32:30;95532.50;;;8.81;87.34
18167;BME280;9208;42.688;23.404;2023-04-29T05:34:56;95541.69;;;8.92;86.69
18167;BME280;9208;42.688;23.404;2023-04-29T05:37:21;95529.84;;;8.95;85.23
18167;BME280;9208;42.688;23.404;2023-04-29T05:39:47;95540.41;;;9.02;84.42
18167;BME280;9208;42.688;23.404;2023-04-29T05:42:12;95530.66;;;9.10;82.95
18167;BME280;9208;42.688;23.404;2023-04-29T05:44:38;95527.25;;;9.15;82.59
18167;BME280;9208;42.688;23.404;2023-04-29T05:47:04;95529.19;;;9.24;82.59
18167;BME280;9208;42.688;23.404;2023-04-29T05:49:29;95539.69;;;9.40;80.88
18167;BME280;9208;42.688;23.404;2023-04-29T05:51:55;95534.81;;;9.44;80.95
18167;BME280;9208;42.688;23.404;2023-04-29T05:54:20;95529.66;;;9.46;81.94
18167;BME280;9208;42.688;23.404;2023-04-29T05:56:46;95533.69;;;9.50;81.74
18167;BME280;9208;42.688;23.404;2023-04-29T05:59:11;95532.31;;;9.55;81.47
18167;BME280;9208;42.688;23.404;2023-04-29T06:01:37;95534.56;;;9.56;80.82
18167;BME280;9208;42.688;23.404;2023-04-29T06:04:03;95531.94;;;9.62;80.70
18167;BME280;9208;42.688;23.404;2023-04-29T06:06:28;95533.53;;;9.68;81.29
18167;BME280;9208;42.688;23.404;2023-04-29T06:08:54;95542.81;;;9.71;80.55
18167;BME280;9208;42.688;23.404;2023-04-29T06:11:19;95530.25;;;9.79;80.87
18167;BME280;9208;42.688;23.404;2023-04-29T06:13:45;95529.41;;;9.87;80.38
18167;BME280;9208;42.688;23.404;2023-04-29T06:16:11;95534.00;;;10.05;80.20
18167;BME280;9208;42.688;23.404;2023-04-29T06:18:36;95521.63;;;10.09;80.45
18167;BME280;9208;42.688;23.404;2023-04-29T06:21:02;95528.59;;;10.10;80.01
18167;BME280;9208;42.688;23.404;2023-04-29T06:23:28;95520.88;;;10.09;79.73
18167;BME280;9208;42.688;23.404;2023-04-29T06:25:53;95535.03;;;10.22;81.07
18167;BME280;9208;42.688;23.404;2023-04-29T06:28:19;95544.31;;;10.25;79.78
18167;BME280;9208;42.688;23.404;2023-04-29T06:30:44;95540.78;;;10.39;78.84
18167;BME280;9208;42.688;23.404;2023-04-29T06:33:10;95542.56;;;10.42;78.90
18167;BME280;9208;42.688;23.404;2023-04-29T06:35:40;95540.13;;;10.44;78.16
18167;BME280;9208;42.688;23.404;2023-04-29T06:38:05;95542.19;;;10.49;78.51
18167;BME280;9208;42.688;23.404;2023-04-29T06:40:33;95539.25;;;10.52;78.44
18167;BME280;9208;42.688;23.404;2023-04-29T06:42:58;95537.44;;;10.64;78.05
18167;BME280;9208;42.688;23.404;2023-04-29T06:45:24;95529.78;;;10.68;77.97
18167;BME280;9208;42.688;23.404;2023-04-29T06:47:49;95528.38;;;10.72;77.54
18167;BME280;9208;42.688;23.404;2023-04-29T06:50:15;95531.00;;;10.67;75.02
18167;BME280;9208;42.688;23.404;2023-04-29T06:52:40;95533.63;;;10.76;74.15
18167;BME280;9208;42.688;23.404;2023-04-29T06:55:06;95525.50;;;10.81;73.75
18167;BME280;9208;42.688;23.404;2023-04-29T06:57:32;95531.13;;;10.92;75.15
18167;BME280;9208;42.688;23.404;2023-04-29T06:59:58;95525.25;;;10.99;74.42
18167;BME280;9208;42.688;23.404;2023-04-29T07:02:23;95521.84;;;11.04;74.43
18167;BME280;9208;42.688;23.404;2023-04-29T07:04:48;95529.72;;;11.17;73.66
18167;BME280;9208;42.688;23.404;2023-04-29T07:07:15;95524.78;;;11.21;73.34
18167;BME280;9208;42.688;23.404;2023-04-29T07:09:40;95519.09;;;11.24;73.19
18167;BME280;9208;42.688;23.404;2023-04-29T07:12:06;95516.00;;;11.37;72.51
18167;BME280;9208;42.688;23.404;2023-04-29T07:14:32;95518.66;;;11.51;71.03
18167;BME280;9208;42.688;23.404;2023-04-29T07:16:57;95520.59;;;11.65;69.05
18167;BME280;9208;42.688;23.404;2023-04-29T07:19:23;95519.28;;;11.81;68.54
18167;BME280;9208;42.688;23.404;2023-04-29T07:21:48;95514.16;;;11.94;68.32
18167;BME280;9208;42.688;23.404;2023-04-29T07:24:13;95503.66;;;11.92;67.96
18167;BME280;9208;42.688;23.404;2023-04-29T07:26:42;95518.38;;;12.15;67.65
18167;BME280;9208;42.688;23.404;2023-04-29T07:29:08;95517.22;;;12.27;67.20
18167;BME280;9208;42.688;23.404;2023-04-29T07:31:33;95522.81;;;12.38;66.53
18167;BME280;9208;42.688;23.404;2023-04-29T07:33:59;95524.16;;;12.48;65.65
18167;BME280;9208;42.688;23.404;2023-04-29T07:36:25;95526.19;;;12.53;65.39
18167;BME280;9208;42.688;23.404;2023-04-29T07:38:52;95543.97;;;12.57;62.11
18167;BME280;9208;42.688;23.404;2023-04-29T07:41:18;95550.56;;;12.71;60.49
18167;BME280;9208;42.688;23.404;2023-04-29T07:43:43;95563.63;;;12.76;59.67
18167;BME280;9208;42.688;23.404;2023-04-29T07:46:08;95562.69;;;12.84;59.65
18167;BME280;9208;42.688;23.404;2023-04-29T07:48:38;95562.75;;;12.90;59.13
18167;BME280;9208;42.688;23.404;2023-04-29T07:51:04;95560.97;;;12.87;58.66
18167;BME280;9208;42.688;23.404;2023-04-29T07:53:30;95567.44;;;12.84;57.84
18167;BME280;9208;42.688;23.404;2023-04-29T07:55:56;95554.31;;;12.68;57.54
18167;BME280;9208;42.688;23.404;2023-04-29T07:58:21;95541.78;;;12.67;58.95
18167;BME280;9208;42.688;23.404;2023-04-29T08:00:46;95538.97;;;12.56;58.79
18167;BME280;9208;42.688;23.404;2023-04-29T08:03:12;95534.25;;;12.62;58.21
18167;BME280;9208;42.688;23.404;2023-04-29T08:05:37;95540.78;;;12.64;57.91
18167;BME280;9208;42.688;23.404;2023-04-29T08:08:03;95552.06;;;12.72;57.48
18167;BME280;9208;42.688;23.404;2023-04-29T08:10:29;95548.13;;;12.78;57.44
18167;BME280;9208;42.688;23.404;2023-04-29T08:12:55;95550.47;;;12.91;57.24
18167;BME280;9208;42.688;23.404;2023-04-29T08:15:20;95573.84;;;13.01;54.12
18167;BME280;9208;42.688;23.404;2023-04-29T08:17:46;95572.16;;;13.14;53.58
18167;BME280;9208;42.688;23.404;2023-04-29T08:20:14;95579.72;;;13.19;52.83
18167;BME280;9208;42.688;23.404;2023-04-29T08:22:40;95566.00;;;13.30;53.47
18167;BME280;9208;42.688;23.404;2023-04-29T08:25:07;95563.25;;;13.30;53.66
18167;BME280;9208;42.688;23.404;2023-04-29T08:27:32;95555.56;;;13.40;53.83
18167;BME280;9208;42.688;23.404;2023-04-29T08:29:58;95554.13;;;13.55;53.63
18167;BME280;9208;42.688;23.404;2023-04-29T08:32:23;95560.44;;;13.67;52.96
18167;BME280;9208;42.688;23.404;2023-04-29T08:34:49;95560.47;;;13.78;52.85
18167;BME280;9208;42.688;23.404;2023-04-29T08:37:14;95560.25;;;13.87;52.53
18167;BME280;9208;42.688;23.404;2023-04-29T08:39:40;95563.53;;;13.91;51.60
18167;BME280;9208;42.688;23.404;2023-04-29T08:42:11;95574.84;;;14.04;50.99
18167;BME280;9208;42.688;23.404;2023-04-29T08:44:37;95586.91;;;14.17;49.87
18167;BME280;9208;42.688;23.404;2023-04-29T08:47:03;95582.94;;;14.24;49.71
18167;BME280;9208;42.688;23.404;2023-04-29T08:49:29;95596.28;;;14.36;49.16
18167;BME280;9208;42.688;23.404;2023-04-29T08:51:54;95600.53;;;14.48;48.46
18167;BME280;9208;42.688;23.404;2023-04-29T08:54:20;95620.09;;;14.45;46.78
18167;BME280;9208;42.688;23.404;2023-04-29T08:56:46;95620.59;;;14.49;46.39
18167;BME280;9208;42.688;23.404;2023-04-29T08:59:14;95619.38;;;14.66;46.23
18167;BME280;9208;42.688;23.404;2023-04-29T09:01:41;95628.41;;;14.78;45.40
18167;BME280;9208;42.688;23.404;2023-04-29T09:06:46;95636.22;;;15.01;44.39
18167;BME280;9208;42.688;23.404;2023-04-29T09:09:12;95627.16;;;15.01;44.20
18167;BME280;9208;42.688;23.404;2023-04-29T09:11:41;95643.72;;;15.06;43.68
18167;BME280;9208;42.688;23.404;2023-04-29T09:14:06;95643.50;;;15.21;43.33
18167;BME280;9208;42.688;23.404;2023-04-29T09:16:33;95650.50;;;15.27;42.55
18167;BME280;9208;42.688;23.404;2023-04-29T09:19:01;95681.41;;;15.31;40.86
18167;BME280;9208;42.688;23.404;2023-04-29T09:21:28;95675.38;;;15.38;40.89
18167;BME280;9208;42.688;23.404;2023-04-29T09:23:55;95662.34;;;15.44;41.25
18167;BME280;9208;42.688;23.404;2023-04-29T09:26:21;95657.28;;;15.54;41.60
18167;BME280;9208;42.688;23.404;2023-04-29T09:29:12;95648.44;;;15.72;41.63
18167;BME280;9208;42.688;23.404;2023-04-29T09:31:43;95653.19;;;15.88;41.30
18167;BME280;9208;42.688;23.404;2023-04-29T09:34:09;95648.84;;;16.09;41.22
18167;BME280;9208;42.688;23.404;2023-04-29T09:39:10;95674.38;;;16.37;40.04
18167;BME280;9208;42.688;23.404;2023-04-29T09:44:18;95673.31;;;16.56;39.45
18167;BME280;9208;42.688;23.404;2023-04-29T09:46:54;95666.72;;;16.65;39.79
18167;BME280;9208;42.688;23.404;2023-04-29T09:49:27;95654.63;;;16.68;40.06
18167;BME280;9208;42.688;23.404;2023-04-29T09:52:01;95654.06;;;16.75;39.58
18167;BME280;9208;42.688;23.404;2023-04-29T09:54:28;95664.72;;;16.65;38.76
18167;BME280;9208;42.688;23.404;2023-04-29T09:56:56;95671.97;;;16.68;38.82
18167;BME280;9208;42.688;23.404;2023-04-29T09:59:22;95662.97;;;16.62;38.64
18167;BME280;9208;42.688;23.404;2023-04-29T10:01:52;95650.63;;;16.58;39.40
18167;BME280;9208;42.688;23.404;2023-04-29T10:04:19;95634.03;;;16.58;39.66
18167;BME280;9208;42.688;23.404;2023-04-29T10:06:48;95627.03;;;16.51;39.88
18167;BME280;9208;42.688;23.404;2023-04-29T10:09:14;95616.00;;;16.46;40.14
18167;BME280;9208;42.688;23.404;2023-04-29T10:11:41;95611.16;;;16.57;40.03
18167;BME280;9208;42.688;23.404;2023-04-29T10:14:12;95623.44;;;16.62;39.13
18167;BME280;9208;42.688;23.404;2023-04-29T10:17:01;95627.16;;;16.70;38.82
18167;BME280;9208;42.688;23.404;2023-04-29T10:19:46;95621.31;;;16.79;38.96
18167;BME280;9208;42.688;23.404;2023-04-29T10:22:45;95624.03;;;16.90;38.70
18167;BME280;9208;42.688;23.404;2023-04-29T10:25:10;95605.69;;;16.81;39.38
18167;BME280;9208;42.688;23.404;2023-04-29T10:27:36;95592.50;;;16.93;39.59
18167;BME280;9208;42.688;23.404;2023-04-29T10:30:02;95620.16;;;16.98;37.16
18167;BME280;9208;42.688;23.404;2023-04-29T10:32:29;95617.63;;;17.00;38.07
18167;BME280;9208;42.688;23.404;2023-04-29T10:34:56;95633.84;;;17.20;37.15
18167;BME280;9208;42.688;23.404;2023-04-29T10:37:23;95656.88;;;17.34;35.53
18167;BME280;9208;42.688;23.404;2023-04-29T10:39:49;95686.28;;;17.48;34.02
18167;BME280;9208;42.688;23.404;2023-04-29T10:42:45;95672.63;;;17.55;35.01
18167;BME280;9208;42.688;23.404;2023-04-29T10:50:59;95735.44;;;17.77;32.36
18167;BME280;9208;42.688;23.404;2023-04-29T10:53:26;95780.28;;;17.81;29.19
18167;BME280;9208;42.688;23.404;2023-04-29T10:56:18;95734.84;;;17.84;32.14
18167;BME280;9208;42.688;23.404;2023-04-29T10:58:44;95741.91;;;17.85;30.45
18167;BME280;9208;42.688;23.404;2023-04-29T11:01:14;95765.31;;;17.89;30.01
18167;BME280;9208;42.688;23.404;2023-04-29T11:03:56;95757.41;;;17.99;29.89
18167;BME280;9208;42.688;23.404;2023-04-29T11:14:30;95737.88;;;18.10;30.87
18167;BME280;9208;42.688;23.404;2023-04-29T11:17:00;95722.22;;;18.12;31.01
18167;BME280;9208;42.688;23.404;2023-04-29T11:20:00;95716.09;;;18.19;31.18
18167;BME280;9208;42.688;23.404;2023-04-29T11:22:26;95706.19;;;18.24;31.73
18167;BME280;9208;42.688;23.404;2023-04-29T11:25:07;95706.19;;;18.24;31.27
18167;BME280;9208;42.688;23.404;2023-04-29T11:27:38;95717.38;;;18.18;31.03
18167;BME280;9208;42.688;23.404;2023-04-29T11:30:08;95700.56;;;18.11;31.23
18167;BME280;9208;42.688;23.404;2023-04-29T11:32:38;95705.00;;;18.19;31.56
18167;BME280;9208;42.688;23.404;2023-04-29T11:35:15;95693.13;;;18.19;31.77
18167;BME280;9208;42.688;23.404;2023-04-29T11:37:42;95688.91;;;18.12;31.49
18167;BME280;9208;42.688;23.404;2023-04-29T11:40:09;95688.44;;;18.08;31.37
18167;BME280;9208;42.688;23.404;2023-04-29T11:42:46;95686.59;;;18.16;31.36
18167;BME280;9208;42.688;23.404;2023-04-29T11:45:12;95698.16;;;18.20;30.99
18167;BME280;9208;42.688;23.404;2023-04-29T11:47:42;95706.72;;;18.22;30.79
18167;BME280;9208;42.688;23.404;2023-04-29T11:50:09;95708.38;;;18.31;30.58
18167;BME280;9208;42.688;23.404;2023-04-29T11:52:36;95690.97;;;18.30;31.17
18167;BME280;9208;42.688;23.404;2023-04-29T11:55:07;95686.53;;;18.22;31.64
18167;BME280;9208;42.688;23.404;2023-04-29T11:57:33;95680.53;;;18.18;32.19
18167;BME280;9208;42.688;23.404;2023-04-29T12:00:01;95665.16;;;18.17;32.75
18167;BME280;9208;42.688;23.404;2023-04-29T12:02:32;95652.25;;;18.19;32.96
18167;BME280;9208;42.688;23.404;2023-04-29T12:05:07;95644.47;;;18.18;33.24
18167;BME280;9208;42.688;23.404;2023-04-29T12:07:33;95643.78;;;18.12;33.59
18167;BME280;9208;42.688;23.404;2023-04-29T12:09:59;95637.00;;;18.07;33.65
18167;BME280;9208;42.688;23.404;2023-04-29T12:12:25;95634.59;;;17.98;33.57
18167;BME280;9208;42.688;23.404;2023-04-29T12:14:52;95619.22;;;17.97;34.20
18167;BME280;9208;42.688;23.404;2023-04-29T12:17:18;95603.06;;;18.01;35.01
18167;BME280;9208;42.688;23.404;2023-04-29T12:19:45;95570.72;;;18.04;36.46
18167;BME280;9208;42.688;23.404;2023-04-29T12:22:11;95562.41;;;18.04;36.91
18167;BME280;9208;42.688;23.404;2023-04-29T12:24:38;95536.22;;;17.99;37.19
18167;BME280;9208;42.688;23.404;2023-04-29T12:27:09;95531.06;;;18.09;37.76
18167;BME280;9208;42.688;23.404;2023-04-29T12:29:36;95518.16;;;18.11;38.31
18167;BME280;9208;42.688;23.404;2023-04-29T12:32:02;95510.09;;;18.13;38.42
18167;BME280;9208;42.688;23.404;2023-04-29T12:34:29;95517.66;;;18.13;37.45
18167;BME280;9208;42.688;23.404;2023-04-29T12:36:59;95537.28;;;18.15;36.77
18167;BME280;9208;42.688;23.404;2023-04-29T12:39:26;95534.00;;;18.16;36.31
18167;BME280;9208;42.688;23.404;2023-04-29T12:41:58;95551.09;;;18.20;35.94
18167;BME280;9208;42.688;23.404;2023-04-29T12:44:24;95552.38;;;18.19;35.64
18167;BME280;9208;42.688;23.404;2023-04-29T12:46:50;95555.91;;;18.20;35.38
18167;BME280;9208;42.688;23.404;2023-04-29T12:49:20;95556.63;;;18.20;35.38
18167;BME280;9208;42.688;23.404;2023-04-29T12:51:48;95541.56;;;18.16;36.14
18167;BME280;9208;42.688;23.404;2023-04-29T12:54:13;95547.34;;;18.18;35.72
18167;BME280;9208;42.688;23.404;2023-04-29T12:56:40;95548.09;;;18.18;35.68
18167;BME280;9208;42.688;23.404;2023-04-29T12:59:09;95545.53;;;18.20;35.61
18167;BME280;9208;42.688;23.404;2023-04-29T13:01:35;95547.78;;;18.22;35.62
18167;BME280;9208;42.688;23.404;2023-04-29T13:04:00;95534.13;;;18.24;35.53
18167;BME280;9208;42.688;23.404;2023-04-29T13:06:26;95533.16;;;18.21;35.76
18167;BME280;9208;42.688;23.404;2023-04-29T13:08:52;95539.09;;;18.31;35.71
18167;BME280;9208;42.688;23.404;2023-04-29T13:11:17;95534.53;;;18.33;35.59
18167;BME280;9208;42.688;23.404;2023-04-29T13:13:43;95539.56;;;18.35;35.46
18167;BME280;9208;42.688;23.404;2023-04-29T13:16:08;95550.16;;;18.37;35.28
18167;BME280;9208;42.688;23.404;2023-04-29T13:18:34;95547.38;;;18.37;35.14
18167;BME280;9208;42.688;23.404;2023-04-29T13:21:00;95545.84;;;18.35;35.50
18167;BME280;9208;42.688;23.404;2023-04-29T13:23:26;95542.03;;;18.38;35.51
18167;BME280;9208;42.688;23.404;2023-04-29T13:25:51;95536.56;;;18.33;36.08
18167;BME280;9208;42.688;23.404;2023-04-29T13:28:17;95539.31;;;18.33;36.00
18167;BME280;9208;42.688;23.404;2023-04-29T13:30:42;95519.22;;;18.27;36.49
18167;BME280;9208;42.688;23.404;2023-04-29T13:33:08;95513.44;;;18.25;36.66
18167;BME280;9208;42.688;23.404;2023-04-29T13:35:33;95498.59;;;18.22;37.31
18167;BME280;9208;42.688;23.404;2023-04-29T13:38:02;95498.88;;;18.19;37.23